Time;durP1;ratioP1;P1;durP2;ratioP2;P2;SDS_P1;SDS_P2;PMS_P1;PMS_P2;Temp;Humidity;BMP_temperature;BMP_pressure;BME280_temperature;BME280_humidity;BME280_pressure;Samples;Min_cycle;Max_cycle;Signal;HPM_P1;HPM_P2
2024/02/23 00:02:26;;;;;;;6.20;2.53;;;32.10;53.70;;;;;;5043763;28;20258;-70
2024/02/23 00:04:53;;;;;;;10.82;2.75;;;32.10;52.60;;;;;;5050060;28;20295;-70
2024/02/23 00:07:20;;;;;;;6.38;2.63;;;32.00;52.50;;;;;;5051693;28;20191;-71
2024/02/23 00:09:47;;;;;;;6.40;2.35;;;32.30;53.00;;;;;;5051072;28;20546;-71
2024/02/23 00:12:15;;;;;;;5.63;2.53;;;32.40;51.60;;;;;;5050701;28;20680;-69
2024/02/23 00:14:42;;;;;;;4.22;2.40;;;32.50;50.30;;;;;;5049727;28;20207;-71
2024/02/23 00:17:11;;;;;;;3.55;2.55;;;32.50;51.30;;;;;;5042014;28;20232;-71
2024/02/23 00:19:39;;;;;;;5.35;2.67;;;32.70;50.80;;;;;;5046921;28;20213;-71
2024/02/23 00:22:06;;;;;;;8.10;2.67;;;32.80;51.00;;;;;;5047697;28;20183;-71
2024/02/23 00:24:33;;;;;;;6.65;2.17;;;32.90;50.10;;;;;;5047150;28;20217;-72
2024/02/23 00:27:00;;;;;;;3.40;1.80;;;32.90;48.80;;;;;;5046005;28;20249;-73
2024/02/23 00:29:28;;;;;;;5.28;1.83;;;33.00;47.20;;;;;;5050284;28;20184;-72
2024/02/23 00:31:55;;;;;;;4.45;2.00;;;33.00;47.40;;;;;;5050045;28;20187;-72
2024/02/23 00:34:23;;;;;;;2.53;1.38;;;33.00;47.80;;;;;;5048021;28;20187;-72
2024/02/23 00:36:50;;;;;;;4.47;1.98;;;33.30;48.20;;;;;;5049095;28;20234;-72
2024/02/23 00:39:17;;;;;;;4.57;2.10;;;33.20;48.50;;;;;;5047635;28;20651;-72
2024/02/23 00:41:44;;;;;;;4.13;1.63;;;33.30;46.70;;;;;;5048741;28;20742;-72
2024/02/23 00:44:13;;;;;;;3.42;1.90;;;33.30;47.50;;;;;;5077589;27;20690;-71
2024/02/23 00:46:40;;;;;;;5.45;2.05;;;33.60;47.70;;;;;;5050208;28;20195;-72
2024/02/23 00:49:08;;;;;;;5.93;1.92;;;33.60;47.20;;;;;;5045441;28;20575;-71
2024/02/23 00:51:35;;;;;;;3.50;1.70;;;33.70;47.10;;;;;;5046223;28;20185;-71
2024/02/23 00:54:03;;;;;;;2.85;1.83;;;33.90;47.50;;;;;;5046460;28;20202;-72
2024/02/23 00:56:30;;;;;;;4.97;1.85;;;34.00;46.40;;;;;;5050319;28;20551;-71
2024/02/23 00:58:57;;;;;;;7.65;1.58;;;34.20;45.50;;;;;;5047695;28;20207;-73
2024/02/23 01:01:26;;;;;;;3.30;1.75;;;34.40;45.40;;;;;;5049910;28;20600;-71
2024/02/23 01:03:54;;;;;;;3.42;1.80;;;34.40;44.30;;;;;;5046899;28;20239;-71
2024/02/23 01:06:21;;;;;;;3.53;1.65;;;34.70;44.10;;;;;;5047908;28;20218;-72
2024/02/23 01:08:48;;;;;;;5.70;1.83;;;34.90;43.90;;;;;;5045600;28;20184;-72
2024/02/23 01:11:15;;;;;;;5.13;1.60;;;34.90;43.30;;;;;;5048886;28;20188;-70
2024/02/23 01:13:43;;;;;;;1.92;1.30;;;34.70;44.30;;;;;;5043919;28;20191;-71
2024/02/23 01:16:10;;;;;;;3.88;1.50;;;34.90;44.30;;;;;;5049285;28;20179;-71
2024/02/23 01:18:37;;;;;;;2.92;1.50;;;34.90;44.00;;;;;;5048167;28;20542;-70
2024/02/23 01:21:05;;;;;;;5.22;2.00;;;34.90;44.00;;;;;;5045557;28;20179;-71
2024/02/23 01:23:32;;;;;;;2.50;1.60;;;34.80;44.90;;;;;;5048190;28;20215;-73
2024/02/23 01:26:00;;;;;;;5.90;2.08;;;34.60;44.60;;;;;;5048191;28;20550;-72
2024/02/23 01:28:27;;;;;;;4.80;1.70;;;34.80;45.10;;;;;;5048064;28;20187;-71
2024/02/23 01:30:54;;;;;;;7.10;1.60;;;35.10;43.90;;;;;;5049929;28;20237;-72
2024/02/23 01:33:22;;;;;;;8.95;2.42;;;35.30;43.60;;;;;;5052288;28;20187;-72
2024/02/23 01:35:50;;;;;;;3.80;1.50;;;35.30;42.70;;;;;;5049438;28;20232;-72
2024/02/23 01:38:20;;;;;;;3.80;1.10;;;35.60;40.60;;;;;;5049817;28;20195;-75
2024/02/23 01:40:48;;;;;;;1.55;1.27;;;35.90;40.70;;;;;;5049419;28;20188;-71
2024/02/23 01:43:15;;;;;;;2.67;1.10;;;35.80;41.40;;;;;;5051614;28;20210;-72
2024/02/23 01:45:43;;;;;;;2.88;1.15;;;35.80;40.40;;;;;;5048527;28;20577;-71
2024/02/23 01:48:10;;;;;;;2.97;1.35;;;35.90;40.60;;;;;;5052693;28;20199;-71
2024/02/23 01:50:38;;;;;;;5.72;1.40;;;36.10;40.60;;;;;;5053754;28;20279;-72
2024/02/23 01:53:06;;;;;;;2.15;1.23;;;36.30;39.60;;;;;;5051897;28;20184;-72
2024/02/23 01:55:34;;;;;;;2.10;1.13;;;36.00;40.80;;;;;;5046886;28;20282;-73
2024/02/23 01:58:02;;;;;;;3.28;0.90;;;36.00;41.10;;;;;;5051561;28;20184;-72
2024/02/23 02:00:30;;;;;;;3.08;1.10;;;36.00;39.60;;;;;;5051516;28;20214;-71
2024/02/23 02:02:58;;;;;;;4.18;1.23;;;36.00;40.40;;;;;;5050516;28;20673;-71
2024/02/23 02:05:26;;;;;;;2.03;0.90;;;36.10;39.70;;;;;;5049989;28;20192;-72
2024/02/23 02:07:58;;;;;;;5.60;1.40;;;36.10;40.30;;;;;;5051011;28;20184;-72
2024/02/23 02:10:29;;;;;;;3.47;0.95;;;36.30;39.80;;;;;;5051170;28;20222;-76
2024/02/23 02:13:01;;;;;;;1.83;1.17;;;36.50;39.60;;;;;;5051702;28;20172;-72
2024/02/23 02:15:29;;;;;;;3.45;1.20;;;37.00;39.50;;;;;;5053101;28;20562;-73
2024/02/23 02:17:56;;;;;;;1.63;0.95;;;37.40;37.80;;;;;;5051934;28;20307;-73
2024/02/23 02:20:26;;;;;;;1.58;1.00;;;37.60;37.00;;;;;;5051028;28;20182;-73
2024/02/23 02:22:53;;;;;;;0.90;0.68;;;37.30;37.90;;;;;;5050525;28;20615;-71
2024/02/23 02:25:21;;;;;;;3.13;0.93;;;37.00;37.80;;;;;;5051013;28;20359;-72
2024/02/23 02:27:48;;;;;;;1.58;0.90;;;36.80;38.10;;;;;;5053136;28;20183;-71
2024/02/23 02:30:15;;;;;;;1.85;0.90;;;36.70;38.10;;;;;;5052134;28;20647;-72
2024/02/23 02:32:43;;;;;;;3.10;1.00;;;36.60;38.10;;;;;;5052271;28;20271;-71
2024/02/23 02:35:12;;;;;;;2.35;0.85;;;36.70;38.70;;;;;;5052576;28;20195;-70
2024/02/23 02:37:40;;;;;;;4.03;1.05;;;36.70;39.00;;;;;;5051741;28;20195;-73
2024/02/23 02:40:08;;;;;;;1.58;0.82;;;36.80;38.80;;;;;;5051923;28;20234;-72
2024/02/23 02:42:35;;;;;;;4.28;1.05;;;36.70;37.90;;;;;;5051155;28;21447;-71
2024/02/23 02:45:03;;;;;;;3.70;1.00;;;36.50;38.90;;;;;;5048444;28;20215;-72
2024/02/23 02:47:30;;;;;;;1.20;0.68;;;36.40;39.00;;;;;;5051568;28;20188;-69
2024/02/23 02:49:57;;;;;;;0.95;0.80;;;36.40;38.50;;;;;;5049691;28;20184;-72
2024/02/23 02:52:25;;;;;;;3.83;1.13;;;36.60;38.40;;;;;;5050328;28;20207;-71
2024/02/23 02:54:52;;;;;;;1.45;0.95;;;36.50;38.50;;;;;;5042953;28;20188;-70
2024/02/23 02:57:19;;;;;;;0.98;0.77;;;36.60;38.20;;;;;;5051989;28;20180;-72
2024/02/23 02:59:47;;;;;;;2.58;0.98;;;36.70;36.90;;;;;;5049648;28;20270;-71
2024/02/23 03:02:14;;;;;;;4.45;1.10;;;36.70;37.20;;;;;;5051024;28;20188;-72
2024/02/23 03:04:51;;;;;;;1.80;0.85;;;36.70;37.60;;;;;;5051633;28;20661;-71
2024/02/23 03:07:19;;;;;;;5.07;0.80;;;36.90;37.50;;;;;;5051919;28;20225;-72
2024/02/23 03:09:46;;;;;;;3.90;0.77;;;37.50;36.30;;;;;;5050773;28;20183;-70
2024/02/23 03:12:14;;;;;;;1.45;0.80;;;37.90;35.70;;;;;;5049431;28;20223;-71
2024/02/23 03:14:41;;;;;;;1.60;0.85;;;37.90;35.60;;;;;;5051530;28;20183;-72
2024/02/23 03:17:12;;;;;;;2.05;0.82;;;37.50;35.60;;;;;;5051934;28;20188;-71
2024/02/23 03:19:40;;;;;;;3.60;0.65;;;37.40;36.00;;;;;;5049815;28;20183;-72
2024/02/23 03:22:07;;;;;;;3.38;0.90;;;37.40;35.90;;;;;;5047610;28;20218;-71
2024/02/23 03:24:35;;;;;;;3.22;1.10;;;37.30;37.10;;;;;;5051313;28;20207;-72
2024/02/23 03:27:02;;;;;;;1.45;0.70;;;37.30;36.50;;;;;;5050055;28;20543;-73
2024/02/23 03:29:30;;;;;;;2.90;0.90;;;37.90;36.30;;;;;;5046590;28;20184;-72
2024/02/23 03:31:57;;;;;;;1.48;0.80;;;38.40;35.70;;;;;;5046892;28;20184;-72
2024/02/23 03:34:25;;;;;;;3.63;1.00;;;38.60;35.30;;;;;;5040810;28;20283;-72
2024/02/23 03:36:52;;;;;;;1.17;0.80;;;38.40;34.90;;;;;;5047563;28;20694;-74
2024/02/23 03:39:20;;;;;;;1.98;0.70;;;38.50;34.60;;;;;;5049152;28;20206;-75
2024/02/23 03:41:47;;;;;;;1.30;0.80;;;38.70;34.50;;;;;;5048111;28;20317;-76
2024/02/23 03:44:14;;;;;;;3.65;0.90;;;38.40;34.70;;;;;;5049544;28;20208;-76
2024/02/23 03:46:41;;;;;;;2.92;1.15;;;38.20;35.40;;;;;;5049441;28;20172;-75
2024/02/23 03:49:09;;;;;;;1.58;0.70;;;38.00;35.60;;;;;;5050454;28;20188;-72
2024/02/23 03:51:39;;;;;;;0.82;0.70;;;37.80;35.10;;;;;;5048094;28;20208;-75
2024/02/23 03:54:07;;;;;;;2.13;0.70;;;37.80;35.90;;;;;;5049218;28;20184;-77
2024/02/23 03:56:44;;;;;;;1.23;0.60;;;37.80;35.30;;;;;;5049322;28;20176;-75
2024/02/23 03:59:11;;;;;;;2.17;1.05;;;38.20;35.20;;;;;;5047788;28;20180;-73
2024/02/23 04:01:39;;;;;;;1.33;0.80;;;38.20;35.60;;;;;;5049216;28;20180;-72
2024/02/23 04:04:09;;;;;;;2.20;0.90;;;37.50;35.60;;;;;;5048846;28;20314;-72
2024/02/23 04:06:36;;;;;;;1.88;0.93;;;37.30;36.00;;;;;;5047780;28;20183;-72
2024/02/23 04:09:08;;;;;;;4.55;0.90;;;37.30;35.70;;;;;;5051378;28;20187;-71
2024/02/23 04:11:35;;;;;;;2.92;0.75;;;37.30;36.20;;;;;;5050248;28;20180;-74
2024/02/23 04:14:06;;;;;;;1.42;0.80;;;37.30;37.20;;;;;;5043780;28;20274;-72
2024/02/23 04:16:33;;;;;;;1.50;0.80;;;37.10;37.70;;;;;;5046895;28;20306;-75
2024/02/23 04:19:03;;;;;;;1.50;0.63;;;37.00;37.60;;;;;;5044377;28;20181;-73
2024/02/23 04:21:31;;;;;;;1.73;0.98;;;37.20;37.30;;;;;;5046722;28;20203;-75
2024/02/23 04:23:58;;;;;;;2.55;0.70;;;37.20;37.90;;;;;;5047637;28;20673;-77
2024/02/23 04:26:25;;;;;;;1.98;0.70;;;37.00;37.60;;;;;;5048630;28;20651;-76
2024/02/23 04:28:53;;;;;;;1.15;0.70;;;37.00;36.70;;;;;;5048012;28;20635;-75
2024/02/23 04:31:20;;;;;;;3.70;1.17;;;36.90;36.50;;;;;;5046445;28;20184;-71
2024/02/23 04:33:47;;;;;;;4.38;0.95;;;37.00;36.70;;;;;;5048788;28;20645;-75
2024/02/23 04:36:18;;;;;;;3.33;0.90;;;36.80;36.30;;;;;;5044837;28;20262;-74
2024/02/23 04:38:45;;;;;;;4.15;0.68;;;37.10;36.00;;;;;;5043764;28;20180;-70
2024/02/23 04:41:12;;;;;;;1.88;0.70;;;37.30;36.20;;;;;;5048943;28;20203;-73
2024/02/23 04:43:46;;;;;;;1.40;0.77;;;37.50;36.20;;;;;;5045269;28;20215;-71
2024/02/23 04:46:13;;;;;;;1.65;0.80;;;37.60;36.50;;;;;;5048906;28;20203;-77
2024/02/23 04:48:41;;;;;;;2.03;0.68;;;37.90;35.80;;;;;;5047258;28;20184;-72
2024/02/23 04:51:11;;;;;;;1.00;0.60;;;38.40;35.20;;;;;;5048764;28;20536;-72
2024/02/23 04:53:39;;;;;;;3.55;1.13;;;38.80;34.30;;;;;;5048908;28;20211;-73
2024/02/23 04:56:12;;;;;;;2.20;0.68;;;39.30;33.20;;;;;;5048259;28;20172;-73
2024/02/23 04:58:41;;;;;;;1.15;0.70;;;39.40;32.50;;;;;;5049794;28;20724;-72
2024/02/23 05:01:11;;;;;;;1.83;0.80;;;39.80;33.10;;;;;;5045950;28;20184;-76
2024/02/23 05:03:38;;;;;;;5.68;1.00;;;40.50;31.60;;;;;;5048763;28;20214;-76
2024/02/23 05:06:06;;;;;;;7.53;1.13;;;40.60;31.60;;;;;;5046696;28;20184;-75
2024/02/23 05:08:33;;;;;;;3.25;1.10;;;40.20;32.10;;;;;;5046182;28;20284;-72
2024/02/23 05:11:01;;;;;;;3.30;0.70;;;40.60;31.60;;;;;;5047233;28;20324;-73
2024/02/23 05:13:29;;;;;;;1.92;0.95;;;40.70;31.20;;;;;;5049038;28;20184;-71
2024/02/23 05:16:03;;;;;;;3.60;0.90;;;41.20;30.90;;;;;;5050027;28;20530;-73
2024/02/23 05:18:31;;;;;;;4.18;1.27;;;41.30;31.00;;;;;;5049593;28;20547;-74
2024/02/23 05:20:58;;;;;;;1.90;0.93;;;41.60;30.00;;;;;;5049206;28;20180;-73
2024/02/23 05:23:28;;;;;;;3.15;0.70;;;41.90;29.70;;;;;;5046085;28;20231;-71
2024/02/23 05:25:56;;;;;;;1.67;0.70;;;40.80;31.20;;;;;;5047442;28;20260;-71
2024/02/23 05:28:26;;;;;;;4.40;0.93;;;39.80;32.50;;;;;;5047605;28;20194;-72
2024/02/23 05:30:55;;;;;;;3.50;0.88;;;39.60;33.10;;;;;;5047591;28;20654;-72
2024/02/23 05:33:22;;;;;;;10.77;2.47;;;38.90;34.20;;;;;;5047214;28;20187;-70
2024/02/23 05:35:50;;;;;;;22.77;3.50;;;35.70;40.60;;;;;;5048937;28;20214;-71
2024/02/23 05:38:17;;;;;;;18.63;3.65;;;34.00;44.50;;;;;;5048102;28;20226;-70
2024/02/23 05:40:45;;;;;;;10.82;2.72;;;32.80;47.10;;;;;;5044054;28;20215;-73
2024/02/23 05:43:12;;;;;;;9.52;2.47;;;32.00;48.10;;;;;;5047030;28;20200;-73
2024/02/23 05:45:44;;;;;;;13.52;3.03;;;31.70;49.00;;;;;;5047787;28;20180;-71
2024/02/23 05:48:11;;;;;;;12.15;2.33;;;31.00;51.20;;;;;;5046620;28;20183;-73
2024/02/23 05:50:39;;;;;;;15.35;2.92;;;30.80;52.30;;;;;;5045762;28;20231;-72
2024/02/23 05:53:07;;;;;;;9.77;2.78;;;30.30;54.10;;;;;;5043274;28;20678;-73
2024/02/23 05:55:34;;;;;;;14.23;3.53;;;30.40;54.80;;;;;;5047708;28;20184;-70
2024/02/23 05:58:03;;;;;;;14.68;3.40;;;30.30;56.00;;;;;;5045217;28;20187;-72
2024/02/23 06:00:31;;;;;;;14.90;3.65;;;30.10;56.80;;;;;;5045851;28;20180;-72
2024/02/23 06:02:59;;;;;;;18.00;3.80;;;29.90;57.90;;;;;;5045043;28;20180;-76
2024/02/23 06:05:29;;;;;;;15.77;3.95;;;29.50;59.20;;;;;;5049286;28;20275;-71
2024/02/23 06:07:56;;;;;;;12.50;3.97;;;29.40;60.00;;;;;;5047813;28;20191;-68
2024/02/23 06:10:24;;;;;;;13.77;3.67;;;29.50;59.90;;;;;;5048025;28;20275;-69
2024/02/23 06:12:55;;;;;;;15.47;4.27;;;29.80;59.20;;;;;;5047448;28;20184;-69
2024/02/23 06:15:22;;;;;;;19.98;3.88;;;29.90;58.90;;;;;;5050887;28;20298;-71
2024/02/23 06:18:00;;;;;;;16.30;4.10;;;30.00;58.90;;;;;;5052477;28;20191;-72
2024/02/23 06:20:28;;;;;;;18.80;3.67;;;29.90;59.20;;;;;;5053611;28;20219;-71
2024/02/23 06:22:58;;;;;;;21.33;4.85;;;29.60;60.20;;;;;;5048787;28;20622;-71
2024/02/23 06:25:25;;;;;;;14.77;4.17;;;29.30;61.20;;;;;;5049904;28;20547;-69
2024/02/23 06:27:52;;;;;;;19.27;3.90;;;29.50;61.50;;;;;;5067419;28;20558;-71
2024/02/23 06:30:20;;;;;;;16.15;3.35;;;30.20;60.10;;;;;;5052952;28;20340;-71
2024/02/23 06:32:48;;;;;;;19.27;3.90;;;30.60;59.60;;;;;;5051854;28;20196;-71
2024/02/23 06:35:15;;;;;;;19.50;3.95;;;30.50;59.50;;;;;;5052947;28;20274;-70
2024/02/23 06:37:46;;;;;;;16.60;3.58;;;30.10;60.70;;;;;;5053835;28;20192;-72
2024/02/23 06:40:13;;;;;;;17.70;4.60;;;29.80;61.30;;;;;;5050022;28;20188;-72
2024/02/23 06:42:41;;;;;;;15.80;3.42;;;29.30;62.30;;;;;;5053445;28;20688;-72
2024/02/23 06:45:08;;;;;;;28.47;4.80;;;29.00;63.10;;;;;;5050814;28;20215;-70
2024/02/23 06:47:36;;;;;;;26.05;5.38;;;28.70;64.80;;;;;;5049464;28;20184;-68
2024/02/23 06:50:04;;;;;;;29.87;5.93;;;28.20;68.70;;;;;;5049996;28;20245;-70
2024/02/23 06:52:33;;;;;;;31.87;6.20;;;27.80;71.00;;;;;;5045717;28;20191;-73
2024/02/23 06:55:00;;;;;;;33.63;6.30;;;27.40;75.50;;;;;;5052475;28;20291;-70
2024/02/23 06:57:27;;;;;;;40.80;7.80;;;27.00;79.00;;;;;;5053391;28;20188;-72
2024/02/23 06:59:55;;;;;;;35.80;6.97;;;26.60;81.20;;;;;;5051688;28;20184;-71
2024/02/23 07:02:22;;;;;;;34.30;6.63;;;26.30;82.50;;;;;;5050465;28;20184;-72
2024/02/23 07:04:54;;;;;;;31.20;6.20;;;26.00;84.20;;;;;;5051017;28;20211;-70
2024/02/23 07:07:21;;;;;;;34.70;7.93;;;26.10;84.80;;;;;;5052397;28;20211;-71
2024/02/23 07:09:50;;;;;;;33.43;9.27;;;25.80;85.90;;;;;;5052095;28;20202;-71
2024/02/23 07:12:17;;;;;;;28.80;9.90;;;25.90;86.00;;;;;;5052785;28;20528;-70
2024/02/23 07:14:48;;;;;;;33.80;14.80;;;25.80;86.00;;;;;;5052716;28;20187;-71
2024/02/23 07:17:18;;;;;;;16.97;10.57;;;25.80;86.90;;;;;;5052383;28;20196;-71
2024/02/23 07:19:47;;;;;;;19.03;11.13;;;25.20;84.70;;;;;;5045587;28;20176;-70
2024/02/23 07:22:15;;;;;;;23.20;17.70;;;24.80;85.00;;;;;;5050700;28;20358;-68
2024/02/23 07:24:43;;;;;;;19.00;17.00;;;24.70;86.50;;;;;;5052764;28;20573;-71
2024/02/23 07:27:10;;;;;;;21.87;19.30;;;24.50;85.90;;;;;;5051320;28;20192;-71
2024/02/23 07:29:38;;;;;;;24.57;22.40;;;24.60;86.80;;;;;;5050459;28;20192;-71
2024/02/23 07:32:06;;;;;;;39.30;35.77;;;25.00;87.40;;;;;;5051984;28;20184;-70
2024/02/23 07:34:33;;;;;;;41.80;37.67;;;25.00;87.90;;;;;;5051160;28;20192;-71
2024/02/23 07:37:00;;;;;;;42.97;39.53;;;24.90;88.10;;;;;;5050729;28;20232;-71
2024/02/23 07:39:27;;;;;;;41.13;37.57;;;24.90;88.90;;;;;;5053038;28;20625;-69
2024/02/23 07:41:55;;;;;;;42.23;38.30;;;25.00;89.00;;;;;;5048082;28;20180;-70
2024/02/23 07:44:22;;;;;;;45.97;42.43;;;24.80;88.30;;;;;;5052270;28;21452;-71
2024/02/23 07:46:54;;;;;;;55.83;51.33;;;24.90;89.30;;;;;;5049219;28;20180;-70
2024/02/23 07:49:25;;;;;;;55.87;51.17;;;24.90;89.60;;;;;;5051351;28;20657;-71
2024/02/23 07:51:52;;;;;;;37.67;34.47;;;25.30;90.10;;;;;;5047481;28;20212;-70
2024/02/23 07:54:19;;;;;;;26.77;23.97;;;26.00;88.00;;;;;;5048341;28;20777;-71
2024/02/23 07:56:46;;;;;;;22.97;16.53;;;26.80;86.90;;;;;;5048303;28;20685;-70
2024/02/23 07:59:14;;;;;;;25.37;22.70;;;26.50;84.60;;;;;;5043445;28;20241;-71
2024/02/23 08:01:41;;;;;;;23.63;18.17;;;26.30;85.40;;;;;;5042170;28;20252;-70
2024/02/23 08:04:08;;;;;;;24.40;16.17;;;25.80;84.80;;;;;;5046039;28;20250;-70
2024/02/23 08:06:36;;;;;;;27.27;17.93;;;26.00;85.20;;;;;;5048266;28;20719;-70
2024/02/23 08:09:03;;;;;;;28.67;25.87;;;25.80;86.50;;;;;;5049963;28;20180;-70
2024/02/23 08:11:30;;;;;;;26.50;24.07;;;25.70;87.20;;;;;;5045711;28;20188;-70
2024/02/23 08:14:01;;;;;;;30.07;27.00;;;25.60;87.70;;;;;;5044319;28;20183;-71
2024/02/23 08:16:29;;;;;;;37.27;33.57;;;25.30;87.10;;;;;;5046531;28;20176;-71
2024/02/23 08:18:56;;;;;;;39.07;35.97;;;25.20;88.30;;;;;;5045265;28;20592;-71
2024/02/23 08:21:24;;;;;;;36.53;32.80;;;25.10;88.30;;;;;;5045870;28;20215;-70
2024/02/23 08:23:51;;;;;;;40.17;36.50;;;24.80;88.10;;;;;;5048160;28;20219;-71
2024/02/23 08:26:18;;;;;;;37.83;34.43;;;24.80;89.00;;;;;;5047774;28;20234;-71
2024/02/23 08:28:46;;;;;;;35.07;32.37;;;24.90;88.90;;;;;;5046236;28;20180;-71
2024/02/23 08:31:13;;;;;;;37.70;34.37;;;24.80;88.10;;;;;;5049394;28;20321;-72
2024/02/23 08:33:40;;;;;;;36.93;34.07;;;24.80;88.20;;;;;;5050059;28;20199;-70
2024/02/23 08:36:08;;;;;;;35.17;31.77;;;24.80;88.40;;;;;;5051258;28;20311;-70
2024/02/23 08:38:35;;;;;;;42.87;38.70;;;24.70;88.60;;;;;;5051255;28;20184;-70
2024/02/23 08:41:04;;;;;;;59.30;54.77;;;24.70;88.40;;;;;;5051083;28;20304;-70
2024/02/23 08:43:31;;;;;;;58.90;54.33;;;24.80;89.20;;;;;;5046004;28;20215;-70
2024/02/23 08:45:58;;;;;;;62.43;57.43;;;24.80;88.90;;;;;;5051223;28;20646;-70
2024/02/23 08:48:25;;;;;;;58.67;53.03;;;24.80;88.90;;;;;;5046092;28;20619;-70
2024/02/23 08:50:53;;;;;;;60.23;54.23;;;24.60;88.50;;;;;;5049209;28;20183;-71
2024/02/23 08:53:20;;;;;;;58.47;52.33;;;24.60;88.80;;;;;;5051463;28;20328;-70
2024/02/23 08:55:48;;;;;;;61.17;54.80;;;24.50;89.00;;;;;;5046886;28;20588;-72
2024/02/23 08:58:15;;;;;;;61.17;55.20;;;24.50;89.00;;;;;;5049151;28;20200;-73
2024/02/23 09:00:42;;;;;;;62.70;53.83;;;24.50;89.20;;;;;;5048161;28;20188;-73
2024/02/23 09:03:09;;;;;;;55.60;50.07;;;24.30;88.90;;;;;;5050477;28;20195;-72
2024/02/23 09:05:37;;;;;;;58.57;53.20;;;24.30;88.70;;;;;;5048094;28;20194;-73
2024/02/23 09:08:04;;;;;;;55.67;49.00;;;24.30;88.90;;;;;;5049502;28;20648;-72
2024/02/23 09:10:32;;;;;;;56.67;50.87;;;24.30;88.30;;;;;;5049808;28;20230;-72
2024/02/23 09:12:59;;;;;;;54.87;49.13;;;24.20;88.40;;;;;;5050662;28;20167;-72
2024/02/23 09:15:26;;;;;;;55.47;49.83;;;24.20;88.20;;;;;;5044279;28;20187;-71
2024/02/23 09:17:54;;;;;;;57.40;52.27;;;24.00;87.90;;;;;;5047851;28;20637;-72
2024/02/23 09:20:21;;;;;;;55.37;49.53;;;24.10;88.40;;;;;;5047631;28;20175;-72
2024/02/23 09:22:49;;;;;;;54.57;48.80;;;24.10;87.50;;;;;;5046112;28;20186;-72
2024/02/23 09:25:16;;;;;;;55.83;50.90;;;24.00;87.90;;;;;;5047202;28;20610;-71
2024/02/23 09:27:43;;;;;;;52.37;47.57;;;24.10;87.80;;;;;;5049222;28;20206;-72
2024/02/23 09:30:13;;;;;;;58.00;52.37;;;24.10;87.70;;;;;;5045031;28;20257;-72
2024/02/23 09:32:40;;;;;;;58.27;52.97;;;24.10;87.60;;;;;;5048029;28;20180;-72
2024/02/23 09:35:08;;;;;;;61.90;56.17;;;24.10;88.10;;;;;;5048807;28;20179;-72
2024/02/23 09:37:35;;;;;;;59.17;53.63;;;24.10;87.80;;;;;;5049415;28;20188;-71
2024/02/23 09:40:02;;;;;;;58.80;52.50;;;24.10;87.90;;;;;;5047227;28;20748;-72
2024/02/23 09:42:32;;;;;;;64.97;59.13;;;24.20;87.60;;;;;;5047777;28;20643;-72
2024/02/23 09:45:00;;;;;;;67.30;60.43;;;24.20;87.50;;;;;;5047344;28;20682;-72
2024/02/23 09:47:31;;;;;;;68.20;62.30;;;24.10;87.70;;;;;;5049769;28;20191;-72
2024/02/23 09:50:04;;;;;;;64.10;57.40;;;24.10;88.10;;;;;;5049915;28;20634;-72
2024/02/23 09:52:32;;;;;;;68.93;62.80;;;24.20;88.10;;;;;;5052466;28;20172;-72
2024/02/23 09:54:59;;;;;;;72.43;66.10;;;24.20;88.40;;;;;;5053455;28;20187;-71
2024/02/23 09:57:27;;;;;;;73.73;66.40;;;24.20;88.30;;;;;;5053556;28;20184;-72
2024/02/23 09:59:55;;;;;;;75.00;67.87;;;24.10;88.50;;;;;;5052758;28;20184;-72
2024/02/23 10:02:22;;;;;;;70.67;63.93;;;24.20;88.50;;;;;;5048296;28;20199;-72
2024/02/23 10:04:51;;;;;;;78.67;71.63;;;24.20;88.70;;;;;;5051509;28;20234;-72
2024/02/23 10:07:19;;;;;;;77.53;70.30;;;24.20;88.80;;;;;;5051797;28;20276;-72
2024/02/23 10:09:46;;;;;;;71.27;64.37;;;24.20;88.60;;;;;;5052207;28;20188;-72
2024/02/23 10:12:16;;;;;;;76.43;69.27;;;24.20;88.60;;;;;;5048438;28;20192;-72
2024/02/23 10:14:43;;;;;;;78.23;71.40;;;24.20;88.60;;;;;;5052784;28;20242;-73
2024/02/23 10:17:13;;;;;;;79.07;71.83;;;24.20;88.50;;;;;;5053219;28;20191;-72
2024/02/23 10:19:40;;;;;;;83.10;75.57;;;24.20;88.60;;;;;;5052472;28;20246;-72
2024/02/23 10:22:08;;;;;;;91.13;83.23;;;24.20;88.50;;;;;;5053437;28;20188;-73
2024/02/23 10:24:36;;;;;;;94.00;86.80;;;24.20;88.50;;;;;;5052687;28;20215;-72
2024/02/23 10:27:04;;;;;;;88.00;80.53;;;24.20;88.60;;;;;;5051420;28;20188;-73
2024/02/23 10:29:31;;;;;;;82.90;76.07;;;24.20;88.40;;;;;;5053790;28;20250;-72
2024/02/23 10:32:00;;;;;;;81.13;74.60;;;24.20;88.60;;;;;;5052018;28;20518;-72
2024/02/23 10:34:30;;;;;;;82.23;74.87;;;24.10;88.50;;;;;;5053405;28;20203;-73
2024/02/23 10:36:57;;;;;;;86.80;79.73;;;24.00;88.00;;;;;;5053070;28;20285;-74
2024/02/23 10:39:28;;;;;;;82.80;75.93;;;24.00;87.90;;;;;;5053854;28;20199;-73
2024/02/23 10:42:03;;;;;;;88.40;80.50;;;24.00;87.90;;;;;;5052530;28;20183;-73
2024/02/23 10:44:31;;;;;;;88.07;80.47;;;24.00;88.10;;;;;;5045812;28;20230;-72
2024/02/23 10:47:00;;;;;;;93.57;84.97;;;23.90;88.00;;;;;;5053020;28;20184;-71
2024/02/23 10:49:30;;;;;;;95.70;86.77;;;24.00;88.30;;;;;;5050058;28;20188;-72
2024/02/23 10:51:57;;;;;;;100.60;91.60;;;23.90;88.30;;;;;;5043922;28;20241;-73
2024/02/23 10:54:25;;;;;;;105.87;96.97;;;23.90;88.20;;;;;;5052262;28;20195;-72
2024/02/23 10:56:55;;;;;;;99.03;91.50;;;24.00;88.50;;;;;;5053358;28;20184;-72
2024/02/23 10:59:23;;;;;;;100.67;92.77;;;23.80;88.10;;;;;;5052163;28;20207;-71
2024/02/23 11:01:57;;;;;;;104.20;96.10;;;23.70;88.00;;;;;;5048012;28;20563;-71
2024/02/23 11:04:26;;;;;;;101.53;93.90;;;23.70;88.00;;;;;;5052371;28;20220;-71
2024/02/23 11:06:58;;;;;;;106.40;97.87;;;23.60;88.20;;;;;;5050295;28;20203;-72
2024/02/23 11:09:27;;;;;;;107.57;98.37;;;23.60;88.40;;;;;;5050953;28;20260;-71
2024/02/23 11:11:59;;;;;;;112.10;103.27;;;23.60;88.50;;;;;;5051424;28;20190;-71
2024/02/23 11:14:39;;;;;;;116.67;106.73;;;23.50;88.70;;;;;;5051261;28;20672;-70
2024/02/23 11:17:06;;;;;;;119.57;109.43;;;23.50;88.50;;;;;;5050981;28;20194;-69
2024/02/23 11:19:35;;;;;;;126.27;115.77;;;23.50;88.90;;;;;;5049964;28;20246;-73
2024/02/23 11:22:04;;;;;;;120.00;110.27;;;23.60;88.70;;;;;;5051608;28;20214;-71
2024/02/23 11:24:32;;;;;;;113.93;104.83;;;23.60;88.70;;;;;;5049398;28;20230;-71
2024/02/23 11:27:07;;;;;;;129.20;118.57;;;23.50;88.70;;;;;;5048712;28;20543;-72
2024/02/23 11:29:39;;;;;;;123.17;113.70;;;23.50;88.80;;;;;;5065911;28;20188;-71
2024/02/23 11:32:14;;;;;;;128.20;117.90;;;23.50;88.70;;;;;;5051285;28;20188;-72
2024/02/23 11:34:41;;;;;;;124.43;114.57;;;23.50;88.80;;;;;;5045875;28;20245;-73
2024/02/23 11:37:12;;;;;;;127.60;116.70;;;23.50;88.60;;;;;;5049615;28;20627;-71
2024/02/23 11:39:40;;;;;;;121.07;110.57;;;23.50;88.60;;;;;;5045571;28;20188;-71
2024/02/23 11:42:08;;;;;;;118.13;107.97;;;23.50;88.60;;;;;;5052305;28;20267;-72
2024/02/23 11:44:35;;;;;;;122.83;112.10;;;23.60;88.50;;;;;;5051460;28;20215;-73
2024/02/23 11:47:03;;;;;;;122.87;112.60;;;23.50;88.20;;;;;;5051258;28;20179;-71
2024/02/23 11:49:31;;;;;;;124.23;113.47;;;23.50;88.10;;;;;;5050315;28;20253;-72
2024/02/23 11:51:59;;;;;;;121.57;111.70;;;23.50;88.20;;;;;;5047726;28;20183;-72
2024/02/23 11:54:26;;;;;;;123.40;113.00;;;23.50;88.20;;;;;;5051365;28;20194;-71
2024/02/23 11:56:54;;;;;;;119.43;109.97;;;23.60;88.30;;;;;;5050291;28;20210;-71
2024/02/23 11:59:23;;;;;;;118.73;109.17;;;23.50;88.10;;;;;;5049464;28;20661;-71
2024/02/23 12:01:50;;;;;;;124.63;113.80;;;23.50;88.20;;;;;;5043005;28;20249;-72
2024/02/23 12:04:18;;;;;;;130.43;119.73;;;23.50;88.20;;;;;;5048759;28;20311;-71
2024/02/23 12:06:46;;;;;;;127.70;117.00;;;23.50;88.30;;;;;;5045578;28;20263;-72
2024/02/23 12:09:15;;;;;;;126.83;116.30;;;23.40;88.50;;;;;;5047908;28;20195;-72
2024/02/23 12:11:43;;;;;;;125.80;115.47;;;23.50;88.60;;;;;;5048661;28;20242;-70
2024/02/23 12:14:11;;;;;;;123.73;114.73;;;23.40;88.40;;;;;;5051458;28;20348;-71
2024/02/23 12:16:41;;;;;;;127.50;117.27;;;23.30;88.60;;;;;;5051148;28;20563;-70
2024/02/23 12:19:09;;;;;;;124.33;113.77;;;23.30;88.50;;;;;;5050629;28;20619;-71
2024/02/23 12:21:36;;;;;;;121.47;111.97;;;23.20;88.20;;;;;;5051471;28;20229;-71
2024/02/23 12:24:07;;;;;;;119.43;110.23;;;23.20;88.10;;;;;;5047290;28;20215;-71
2024/02/23 12:26:35;;;;;;;122.77;112.17;;;23.10;88.30;;;;;;5047057;28;20191;-70
2024/02/23 12:29:03;;;;;;;125.33;115.37;;;23.10;88.60;;;;;;5050274;28;20278;-71
2024/02/23 12:31:33;;;;;;;119.67;110.47;;;23.00;88.50;;;;;;5051965;28;20634;-73
2024/02/23 12:34:01;;;;;;;127.93;117.73;;;23.00;88.50;;;;;;5049207;28;20253;-73
2024/02/23 12:36:34;;;;;;;127.23;116.87;;;23.00;88.50;;;;;;5046227;28;20733;-73
2024/02/23 12:39:02;;;;;;;122.40;114.17;;;23.00;88.50;;;;;;5046295;28;20191;-73